createdAt,value
2018-04-29T08:30:27.791Z,987.55
2018-04-29T08:31:27.698Z,987.50
2018-04-29T08:33:20.560Z,987.63
2018-04-29T08:34:20.553Z,987.61
2018-04-29T08:36:13.473Z,987.68
2018-04-29T08:37:13.511Z,987.72
2018-04-29T08:39:06.905Z,987.77
2018-04-29T08:40:06.865Z,987.85
2018-04-29T08:41:06.885Z,987.87
2018-04-29T08:42:06.907Z,987.92
2018-04-29T08:43:07.081Z,987.95
2018-04-29T08:44:06.802Z,987.97
2018-04-29T08:45:06.770Z,987.96
2018-04-29T08:46:06.763Z,987.97
2018-04-29T08:47:06.763Z,987.93
2018-04-29T08:48:06.763Z,987.96
2018-04-29T08:49:06.747Z,987.92
2018-04-29T08:50:06.770Z,987.91
2018-04-29T08:51:06.721Z,987.92
2018-04-29T08:52:06.724Z,987.92
2018-04-29T08:53:06.711Z,987.95
2018-04-29T08:54:06.711Z,987.93
2018-04-29T08:55:06.721Z,987.92
2018-04-29T08:56:06.803Z,987.96
2018-04-29T08:57:06.683Z,987.92
2018-04-29T08:58:06.667Z,987.89
2018-04-29T08:59:06.699Z,987.91
2018-04-29T09:00:06.683Z,987.95
2018-04-29T09:01:06.676Z,987.88
2018-04-29T09:02:06.650Z,987.86
2018-04-29T09:03:06.658Z,987.80
2018-04-29T09:04:06.651Z,987.77
2018-04-29T09:05:06.629Z,987.75
2018-04-29T09:06:06.619Z,987.77
2018-04-29T09:07:06.613Z,987.74
2018-04-29T09:08:06.610Z,987.76
2018-04-29T09:09:06.608Z,987.73
2018-04-29T09:10:06.602Z,987.76
2018-04-29T09:11:06.619Z,987.77
2018-04-29T09:12:06.609Z,987.72
2018-04-29T09:13:06.606Z,987.71
2018-04-29T09:14:06.580Z,987.67
2018-04-29T09:15:06.607Z,987.72
2018-04-29T09:16:06.580Z,987.67
2018-04-29T09:17:06.558Z,987.66
2018-04-29T09:18:06.571Z,987.66
2018-04-29T09:19:06.545Z,987.66
2018-04-29T09:20:06.535Z,987.68
2018-04-29T09:21:06.536Z,987.65
2018-04-29T09:22:06.526Z,987.66
2018-04-29T09:23:06.543Z,987.67
2018-04-29T09:24:06.542Z,987.66
2018-04-29T09:25:06.520Z,987.72
2018-04-29T09:26:06.518Z,987.67
2018-04-29T09:27:06.513Z,987.66
2018-04-29T09:28:06.494Z,987.66
2018-04-29T09:29:06.484Z,987.66
2018-04-29T09:30:06.548Z,987.67
2018-04-29T09:31:06.475Z,987.66
2018-04-29T09:32:06.475Z,987.65
2018-04-29T09:33:06.487Z,987.63
2018-04-29T09:34:06.456Z,987.61
2018-04-29T09:35:06.474Z,987.57
2018-04-29T09:36:06.465Z,987.60
2018-04-29T09:37:06.482Z,987.58
2018-04-29T09:38:06.429Z,987.56
2018-04-29T09:39:06.452Z,987.57
2018-04-29T09:40:06.419Z,987.59
2018-04-29T09:41:06.406Z,987.56
2018-04-29T09:42:06.398Z,987.57
2018-04-29T09:43:06.396Z,987.56
2018-04-29T09:44:06.390Z,987.51
2018-04-29T09:45:06.388Z,987.53
2018-04-29T09:46:06.391Z,987.52
2018-04-29T09:47:06.372Z,987.50
2018-04-29T09:48:06.356Z,987.48
2018-04-29T09:49:06.384Z,987.50
2018-04-29T09:50:06.349Z,987.49
2018-04-29T09:51:06.346Z,987.48
2018-04-29T09:52:06.339Z,987.44
2018-04-29T09:53:06.342Z,987.42
2018-04-29T09:54:06.332Z,987.40
2018-04-29T09:55:06.320Z,987.39
2018-04-29T09:56:06.307Z,987.30
2018-04-29T09:57:06.311Z,987.29
2018-04-29T09:58:06.307Z,987.26
2018-04-29T09:59:06.306Z,987.20
2018-04-29T10:00:06.320Z,987.16
2018-04-29T10:01:06.301Z,987.16
2018-04-29T10:02:06.279Z,987.13
2018-04-29T10:03:06.276Z,987.09
2018-04-29T10:04:06.275Z,987.10
2018-04-29T10:05:06.262Z,987.07
2018-04-29T10:06:06.281Z,987.07
2018-04-29T10:07:06.270Z,987.06
2018-04-29T10:08:06.243Z,987.02
2018-04-29T10:09:06.246Z,986.97
2018-04-29T10:10:06.239Z,986.96
2018-04-29T10:11:06.238Z,986.94
2018-04-29T10:12:06.228Z,986.92
2018-04-29T10:13:06.242Z,986.86
2018-04-29T10:14:06.217Z,986.83
2018-04-29T10:15:06.214Z,986.82
2018-04-29T10:16:06.201Z,986.79
2018-04-29T10:17:06.201Z,986.78
2018-04-29T10:18:06.205Z,986.73
2018-04-29T10:19:06.195Z,986.70
2018-04-29T10:20:06.195Z,986.71
2018-04-29T10:21:06.195Z,986.77
2018-04-29T10:22:06.179Z,986.74
2018-04-29T10:23:06.203Z,986.76
2018-04-29T10:24:06.182Z,986.78
2018-04-29T10:25:06.170Z,986.76
2018-04-29T10:26:06.177Z,986.66
2018-04-29T10:27:06.166Z,986.64
2018-04-29T10:28:06.169Z,986.61
2018-04-29T10:29:06.167Z,986.63
2018-04-29T10:30:06.167Z,986.61
2018-04-29T10:31:06.158Z,986.64
2018-04-29T10:32:06.157Z,986.61
2018-04-29T10:33:06.205Z,986.61
2018-04-29T10:34:06.174Z,986.61
2018-04-29T10:35:06.153Z,986.63
2018-04-29T10:36:06.154Z,986.62
2018-04-29T10:37:06.161Z,986.63
2018-04-29T10:38:06.145Z,986.60
2018-04-29T10:39:06.147Z,986.53
2018-04-29T10:40:06.139Z,986.52
2018-04-29T10:41:06.193Z,986.53
2018-04-29T10:42:06.170Z,986.47
2018-04-29T10:43:06.572Z,986.47
2018-04-29T10:44:06.131Z,986.46
2018-04-29T10:45:06.138Z,986.45
2018-04-29T10:46:06.128Z,986.43
2018-04-29T10:47:06.145Z,986.45
2018-04-29T10:48:06.122Z,986.42
2018-04-29T10:49:06.144Z,986.40
2018-04-29T10:50:06.120Z,986.33
2018-04-29T10:51:06.119Z,986.37
2018-04-29T10:52:06.119Z,986.36
2018-04-29T10:53:06.141Z,986.29
2018-04-29T10:54:06.180Z,986.32
2018-04-29T10:55:06.109Z,986.28
2018-04-29T10:56:06.117Z,986.22
2018-04-29T10:57:06.125Z,986.23
2018-04-29T10:58:06.110Z,986.18
2018-04-29T10:59:06.106Z,986.20
2018-04-29T11:00:06.109Z,986.19
2018-04-29T11:01:06.103Z,986.12
2018-04-29T11:02:06.106Z,986.10
2018-04-29T11:03:06.106Z,986.07
2018-04-29T11:04:06.129Z,986.04
2018-04-29T11:05:06.110Z,986.06
2018-04-29T11:06:06.103Z,986.04
2018-04-29T11:07:06.119Z,986.00
2018-04-29T11:08:06.116Z,985.96
2018-04-29T11:09:06.100Z,985.94
2018-04-29T11:10:06.116Z,985.91
2018-04-29T11:11:06.113Z,985.92
2018-04-29T11:12:06.109Z,985.91
2018-04-29T11:13:06.109Z,985.90
2018-04-29T11:14:06.116Z,985.93
2018-04-29T11:15:06.120Z,985.85
2018-04-29T11:16:06.127Z,985.86
2018-04-29T11:17:06.125Z,985.83
2018-04-29T11:18:06.126Z,985.80
2018-04-29T11:19:06.132Z,985.79
2018-04-29T11:20:06.132Z,985.75
2018-04-29T11:21:06.135Z,985.73
2018-04-29T11:22:06.220Z,985.66
2018-04-29T11:23:06.138Z,985.69
2018-04-29T11:24:06.138Z,985.63
2018-04-29T11:25:06.164Z,985.64
2018-04-29T11:26:06.144Z,985.67
2018-04-29T11:27:06.141Z,985.59
2018-04-29T11:28:06.142Z,985.58
2018-04-29T11:29:06.152Z,985.59
2018-04-29T11:30:06.175Z,985.57
2018-04-29T11:31:06.154Z,985.55
2018-04-29T11:32:06.191Z,985.56
2018-04-29T11:33:06.216Z,985.57
2018-04-29T11:34:06.161Z,985.55
2018-04-29T11:35:06.164Z,985.56
2018-04-29T11:36:06.154Z,985.56
2018-04-29T11:37:06.157Z,985.50
2018-04-29T11:38:06.199Z,985.56
2018-04-29T11:39:06.177Z,985.52
2018-04-29T11:40:06.176Z,985.56
2018-04-29T11:41:06.164Z,985.48
2018-04-29T11:42:06.167Z,985.46
2018-04-29T11:43:06.164Z,985.53
2018-04-29T11:44:06.167Z,985.45
2018-04-29T11:45:06.180Z,985.46
2018-04-29T11:46:06.183Z,985.44
2018-04-29T11:47:06.164Z,985.39
2018-04-29T11:48:06.160Z,985.38
2018-04-29T11:49:06.164Z,985.41
2018-04-29T11:50:06.158Z,985.33
2018-04-29T11:51:06.158Z,985.34
2018-04-29T11:52:06.161Z,985.42
2018-04-29T11:53:06.166Z,985.36
2018-04-29T11:54:06.157Z,985.36
2018-04-29T11:55:06.154Z,985.35
2018-04-29T11:56:06.164Z,985.40
2018-04-29T11:57:06.157Z,985.39
2018-04-29T11:58:06.167Z,985.41
2018-04-29T11:59:06.160Z,985.43
2018-04-29T12:00:06.173Z,985.45
2018-04-29T12:01:06.173Z,985.45
2018-04-29T12:02:06.199Z,985.46
2018-04-29T12:03:06.170Z,985.42
2018-04-29T12:04:06.174Z,985.45
2018-04-29T12:05:06.186Z,985.41
2018-04-29T12:06:06.176Z,985.40
2018-04-29T12:07:06.190Z,985.38
2018-04-29T12:08:06.183Z,985.37
2018-04-29T12:09:06.189Z,985.29
2018-04-29T12:10:06.199Z,985.27
2018-04-29T12:11:06.215Z,985.22
2018-04-29T12:12:06.196Z,985.19
2018-04-29T12:13:06.210Z,985.19
2018-04-29T12:14:06.216Z,985.17
2018-04-29T12:15:06.229Z,985.22
2018-04-29T12:16:06.227Z,985.15
2018-04-29T12:17:06.224Z,985.11
2018-04-29T12:18:06.237Z,985.14
2018-04-29T12:19:15.384Z,985.15
2018-04-29T12:20:15.433Z,985.16
2018-04-29T12:21:15.414Z,985.15
2018-04-29T12:22:15.385Z,985.20
2018-04-29T12:23:15.422Z,985.14
2018-04-29T12:24:15.388Z,985.16
2018-04-29T12:25:15.394Z,985.14
2018-04-29T12:26:15.394Z,985.14
2018-04-29T12:27:15.400Z,985.11
2018-04-29T12:28:15.418Z,985.13
2018-04-29T12:29:15.419Z,985.11
2018-04-29T12:30:15.425Z,985.11
2018-04-29T12:31:15.445Z,985.08
2018-04-29T12:32:15.432Z,984.94
2018-04-29T12:33:15.442Z,984.98
2018-04-29T12:34:15.442Z,984.94
2018-04-29T12:35:15.455Z,984.95
2018-04-29T12:36:15.458Z,984.95
2018-04-29T12:37:15.461Z,984.90
2018-04-29T12:38:15.468Z,984.94
2018-04-29T12:39:15.497Z,984.87
2018-04-29T12:40:15.481Z,984.86
2018-04-29T12:41:15.491Z,984.84
2018-04-29T12:42:15.535Z,984.83
2018-04-29T12:43:15.510Z,984.80
2018-04-29T12:44:15.513Z,984.83
2018-04-29T12:45:15.520Z,984.89
2018-04-29T12:46:15.530Z,984.82
2018-04-29T12:47:15.540Z,984.79
2018-04-29T12:48:15.536Z,984.75
2018-04-29T12:49:15.547Z,984.74
2018-04-29T12:50:15.553Z,984.74
2018-04-29T12:51:15.562Z,984.72
2018-04-29T12:52:15.628Z,984.61
2018-04-29T12:53:15.568Z,984.68
2018-04-29T12:54:15.580Z,984.61
2018-04-29T12:55:15.581Z,984.60
2018-04-29T12:56:15.592Z,984.59
2018-04-29T12:57:15.594Z,984.55
2018-04-29T12:58:15.597Z,984.47
2018-04-29T12:59:15.611Z,984.51
2018-04-29T13:00:15.681Z,984.46
2018-04-29T13:01:15.623Z,984.49
2018-04-29T13:02:15.623Z,984.42
2018-04-29T13:03:15.629Z,984.43
2018-04-29T13:04:15.634Z,984.36
2018-04-29T13:05:15.639Z,984.33
2018-04-29T13:06:15.652Z,984.29
2018-04-29T13:07:15.649Z,984.25
2018-04-29T13:08:15.669Z,984.28
2018-04-29T13:09:15.672Z,984.19
2018-04-29T13:10:15.670Z,984.22
2018-04-29T13:11:15.680Z,984.18
2018-04-29T13:12:15.703Z,984.15
2018-04-29T13:13:15.694Z,984.13
2018-04-29T13:14:15.696Z,984.11
2018-04-29T13:15:15.706Z,984.08
2018-04-29T13:16:15.709Z,984.06
2018-04-29T13:17:15.745Z,984.03
2018-04-29T13:18:15.754Z,984.01
2018-04-29T13:19:15.738Z,983.94
2018-04-29T13:20:15.746Z,984.00
2018-04-29T13:21:15.747Z,983.93
2018-04-29T13:22:15.757Z,983.89
2018-04-29T13:23:15.779Z,983.84
2018-04-29T13:24:15.811Z,983.79
2018-04-29T13:25:15.776Z,983.82
2018-04-29T13:26:15.809Z,983.83
2018-04-29T13:27:15.784Z,983.84
2018-04-29T13:28:15.782Z,983.82
2018-04-29T13:29:15.789Z,983.82
2018-04-29T13:30:15.796Z,983.74
2018-04-29T13:31:15.798Z,983.74
2018-04-29T13:32:15.822Z,983.70
2018-04-29T13:33:15.805Z,983.67
2018-04-29T13:34:15.822Z,983.66
2018-04-29T13:35:15.821Z,983.64
2018-04-29T13:36:15.828Z,983.61
2018-04-29T13:37:15.840Z,983.55
2018-04-29T13:38:15.844Z,983.56
2018-04-29T13:39:15.844Z,983.55
2018-04-29T13:40:15.843Z,983.61
2018-04-29T13:41:15.856Z,983.61
2018-04-29T13:42:15.891Z,983.56
2018-04-29T13:43:15.860Z,983.54
2018-04-29T13:44:15.869Z,983.52
2018-04-29T13:45:15.883Z,983.45
2018-04-29T13:46:15.876Z,983.44
2018-04-29T13:47:15.882Z,983.43
2018-04-29T13:48:15.892Z,983.44
2018-04-29T13:49:15.885Z,983.36
2018-04-29T13:50:15.913Z,983.40
2018-04-29T13:51:15.911Z,983.38
2018-04-29T13:52:16.030Z,983.34
2018-04-29T13:53:15.904Z,983.34
2018-04-29T13:54:15.908Z,983.29
2018-04-29T13:55:15.917Z,983.32
2018-04-29T13:56:15.924Z,983.32
2018-04-29T13:57:15.920Z,983.28
2018-04-29T13:58:15.927Z,983.29
2018-04-29T13:59:15.928Z,983.21
2018-04-29T14:00:15.939Z,983.21
2018-04-29T14:01:15.933Z,983.17
2018-04-29T14:02:15.949Z,983.19
2018-04-29T14:03:15.980Z,983.12
2018-04-29T14:04:15.945Z,983.08
2018-04-29T14:05:15.947Z,983.06
2018-04-29T14:06:15.959Z,982.99
2018-04-29T14:07:15.978Z,982.97
2018-04-29T14:08:15.958Z,982.96
2018-04-29T14:09:15.962Z,982.94
2018-04-29T14:10:15.975Z,982.94
2018-04-29T14:11:15.965Z,982.89
2018-04-29T14:12:15.991Z,982.83
2018-04-29T14:13:15.981Z,982.87
2018-04-29T14:14:15.981Z,982.89
2018-04-29T14:15:15.994Z,982.82
2018-04-29T14:16:16.010Z,982.81
2018-04-29T14:17:15.989Z,982.80
2018-04-29T14:18:15.990Z,982.82
2018-04-29T14:19:15.991Z,982.85
2018-04-29T14:20:15.988Z,982.77
2018-04-29T14:21:16.018Z,982.77
2018-04-29T14:22:16.048Z,982.74
2018-04-29T14:23:16.000Z,982.75
2018-04-29T14:24:16.007Z,982.73
2018-04-29T14:25:16.018Z,982.73
2018-04-29T14:26:16.013Z,982.79
2018-04-29T14:27:16.020Z,982.76
2018-04-29T14:28:16.004Z,982.70
2018-04-29T14:29:16.029Z,982.70
2018-04-29T14:30:16.010Z,982.68
2018-04-29T14:31:16.067Z,982.66
2018-04-29T14:32:16.020Z,982.66
2018-04-29T14:33:16.009Z,982.66
2018-04-29T14:34:16.013Z,982.64
2018-04-29T14:35:16.020Z,982.66
2018-04-29T14:36:16.017Z,982.60
2018-04-29T14:37:16.019Z,982.63
2018-04-29T14:38:16.025Z,982.54
2018-04-29T14:39:16.019Z,982.60
2018-04-29T14:40:16.029Z,982.53
2018-04-29T14:41:16.036Z,982.52
2018-04-29T14:42:16.040Z,982.55
2018-04-29T14:43:16.088Z,982.55
2018-04-29T14:44:16.038Z,982.54
2018-04-29T14:45:16.032Z,982.53
2018-04-29T14:46:16.041Z,982.51
2018-04-29T14:47:16.035Z,982.44
2018-04-29T14:48:16.051Z,982.46
2018-04-29T14:49:16.038Z,982.42
2018-04-29T14:50:16.051Z,982.42
2018-04-29T14:51:16.045Z,982.41
2018-04-29T14:52:16.042Z,982.36
2018-04-29T14:53:16.044Z,982.38
2018-04-29T14:54:16.048Z,982.33
2018-04-29T14:55:16.067Z,982.28
2018-04-29T14:56:16.054Z,982.28
2018-04-29T14:57:16.061Z,982.31
2018-04-29T14:58:16.064Z,982.30
2018-04-29T14:59:16.064Z,982.23
2018-04-29T15:00:16.072Z,982.24
2018-04-29T15:01:16.123Z,982.21
2018-04-29T15:02:16.078Z,982.19
2018-04-29T15:03:16.085Z,982.17
2018-04-29T15:04:16.067Z,982.18
2018-04-29T15:05:16.075Z,982.13
2018-04-29T15:06:16.067Z,982.16
2018-04-29T15:07:16.064Z,982.13
2018-04-29T15:08:16.072Z,982.13
2018-04-29T15:09:16.070Z,982.07
2018-04-29T15:10:16.072Z,982.04
2018-04-29T15:11:16.078Z,982.04
2018-04-29T15:12:16.097Z,982.04
2018-04-29T15:13:16.094Z,982.00
2018-04-29T15:14:16.072Z,981.98
2018-04-29T15:15:16.076Z,981.97
2018-04-29T15:16:16.075Z,981.95
2018-04-29T15:17:16.078Z,981.95
2018-04-29T15:18:16.075Z,981.88
2018-04-29T15:19:16.070Z,981.92
2018-04-29T15:20:16.067Z,981.89
2018-04-29T15:21:16.070Z,981.92
2018-04-29T15:22:16.068Z,981.84
2018-04-29T15:23:16.092Z,981.84
2018-04-29T15:24:16.072Z,981.80
2018-04-29T15:25:16.064Z,981.84
2018-04-29T15:26:16.064Z,981.84
2018-04-29T15:27:16.064Z,981.79
2018-04-29T15:28:16.058Z,981.78
2018-04-29T15:29:16.058Z,981.77
2018-04-29T15:30:16.055Z,981.75
2018-04-29T15:31:16.051Z,981.73
2018-04-29T15:32:16.048Z,981.73
2018-04-29T15:33:16.052Z,981.74
2018-04-29T15:34:16.045Z,981.71
2018-04-29T15:35:16.067Z,981.69
2018-04-29T15:36:16.039Z,981.65
2018-04-29T15:37:16.052Z,981.67
2018-04-29T15:38:16.039Z,981.68
2018-04-29T15:39:16.033Z,981.60
2018-04-29T15:40:16.036Z,981.64
2018-04-29T15:41:16.029Z,981.58
2018-04-29T15:42:16.026Z,981.55
2018-04-29T15:43:16.033Z,981.54
2018-04-29T15:44:16.029Z,981.50
2018-04-29T15:45:16.027Z,981.53
2018-04-29T15:46:16.019Z,981.51
2018-04-29T15:47:16.016Z,981.49
2018-04-29T15:48:16.020Z,981.46
2018-04-29T15:49:16.011Z,981.42
2018-04-29T15:50:16.015Z,981.37
2018-04-29T15:51:16.008Z,981.35
2018-04-29T15:52:16.019Z,981.30
2018-04-29T15:53:16.011Z,981.28
2018-04-29T15:54:16.020Z,981.30
2018-04-29T15:55:15.998Z,981.25
2018-04-29T15:56:15.998Z,981.23
2018-04-29T15:57:16.000Z,981.20
2018-04-29T15:58:16.000Z,981.18
2018-04-29T15:59:15.997Z,981.15
2018-04-29T16:00:15.988Z,981.13
2018-04-29T16:01:15.987Z,981.07
2018-04-29T16:02:15.981Z,981.04
2018-04-29T16:03:15.991Z,981.00
2018-04-29T16:04:15.975Z,980.97
2018-04-29T16:05:15.971Z,980.94
2018-04-29T16:06:15.969Z,980.91
2018-04-29T16:07:15.969Z,980.86
2018-04-29T16:08:15.971Z,980.84
2018-04-29T16:09:15.961Z,980.85
2018-04-29T16:10:15.962Z,980.76
2018-04-29T16:11:15.955Z,980.81
2018-04-29T16:12:16.000Z,980.76
2018-04-29T16:13:15.952Z,980.75
2018-04-29T16:14:15.950Z,980.71
2018-04-29T16:15:15.936Z,980.68
2018-04-29T16:16:15.933Z,980.64
2018-04-29T16:17:15.946Z,980.62
2018-04-29T16:18:15.936Z,980.62
2018-04-29T16:19:15.942Z,980.58
2018-04-29T16:20:15.930Z,980.51
2018-04-29T16:21:15.920Z,980.45
2018-04-29T16:22:15.914Z,980.45
2018-04-29T16:23:15.914Z,980.43
2018-04-29T16:24:15.904Z,980.37
2018-04-29T16:25:15.900Z,980.35
2018-04-29T16:26:15.901Z,980.33
2018-04-29T16:27:15.894Z,980.27
2018-04-29T16:28:15.904Z,980.25
2018-04-29T16:29:15.885Z,980.22
2018-04-29T16:30:15.882Z,980.20
2018-04-29T16:31:15.888Z,980.20
2018-04-29T16:32:15.875Z,980.20
2018-04-29T16:33:15.875Z,980.20
2018-04-29T16:34:15.872Z,980.18
2018-04-29T16:35:15.872Z,980.11
2018-04-29T16:36:15.861Z,980.13
2018-04-29T16:37:15.850Z,980.15
2018-04-29T16:38:15.869Z,980.10
2018-04-29T16:39:15.840Z,980.09
2018-04-29T16:40:15.837Z,980.06
2018-04-29T16:41:15.840Z,980.07
2018-04-29T16:42:15.832Z,980.01
2018-04-29T16:43:15.825Z,980.05
2018-04-29T16:44:15.825Z,980.03
2018-04-29T16:45:15.833Z,980.02
2018-04-29T16:46:15.808Z,980.01
2018-04-29T16:47:15.811Z,980.02
2018-04-29T16:48:15.858Z,980.03
2018-04-29T16:49:15.798Z,980.03
2018-04-29T16:50:15.805Z,980.03
2018-04-29T16:51:15.792Z,980.03
2018-04-29T16:52:15.792Z,980.01
2018-04-29T16:53:15.779Z,979.98
2018-04-29T16:54:15.769Z,979.98
2018-04-29T16:55:15.769Z,979.93
2018-04-29T16:56:15.764Z,979.93
2018-04-29T16:57:15.768Z,979.91
2018-04-29T16:58:15.753Z,979.90
2018-04-29T16:59:15.744Z,979.89
2018-04-29T17:00:15.737Z,979.85
2018-04-29T17:01:15.743Z,979.82
2018-04-29T17:02:15.760Z,979.81
2018-04-29T17:03:15.728Z,979.76
2018-04-29T17:04:15.724Z,979.76
2018-04-29T17:05:15.718Z,979.74
2018-04-29T17:06:15.716Z,979.75
2018-04-29T17:07:15.719Z,979.75
2018-04-29T17:08:15.700Z,979.71
2018-04-29T17:09:15.699Z,979.70
2018-04-29T17:10:15.686Z,979.67
2018-04-29T17:11:15.684Z,979.67
2018-04-29T17:12:15.677Z,979.67
2018-04-29T17:13:15.670Z,979.65
2018-04-29T17:14:15.667Z,979.65
2018-04-29T17:15:15.669Z,979.65
2018-04-29T17:16:15.668Z,979.61
2018-04-29T17:17:15.672Z,979.57
2018-04-29T17:18:15.646Z,979.60
2018-04-29T17:19:15.664Z,979.58
2018-04-29T17:20:15.632Z,979.57
2018-04-29T17:21:15.641Z,979.59
2018-04-29T17:22:15.639Z,979.59
2018-04-29T17:23:15.635Z,979.57
2018-04-29T17:24:15.636Z,979.54
2018-04-29T17:25:15.609Z,979.53
2018-04-29T17:26:15.604Z,979.49
2018-04-29T17:27:15.597Z,979.48
2018-04-29T17:28:15.587Z,979.48
2018-04-29T17:29:15.641Z,979.45
2018-04-29T17:30:15.585Z,979.46
2018-04-29T17:31:15.566Z,979.50
2018-04-29T17:32:15.567Z,979.49
2018-04-29T17:33:15.558Z,979.49
2018-04-29T17:34:15.557Z,979.50
2018-04-29T17:35:15.547Z,979.49
2018-04-29T17:36:15.549Z,979.50
2018-04-29T17:37:15.536Z,979.50
2018-04-29T17:38:15.529Z,979.44
2018-04-29T17:39:15.520Z,979.43
2018-04-29T17:40:15.526Z,979.40
2018-04-29T17:41:15.517Z,979.39
2018-04-29T17:42:15.507Z,979.41
2018-04-29T17:43:15.506Z,979.39
2018-04-29T17:44:15.534Z,979.37
2018-04-29T17:45:15.498Z,979.31
2018-04-29T17:46:15.476Z,979.32
2018-04-29T17:47:15.480Z,979.28
2018-04-29T17:48:15.465Z,979.27
2018-04-29T17:49:15.459Z,979.23
2018-04-29T17:50:15.453Z,979.18
2018-04-29T17:51:15.450Z,979.16
2018-04-29T17:52:15.443Z,979.18
2018-04-29T17:53:15.446Z,979.13
2018-04-29T17:54:15.434Z,979.15
2018-04-29T17:55:15.436Z,979.14
2018-04-29T17:56:15.420Z,979.12
2018-04-29T17:57:15.407Z,979.09
2018-04-29T17:58:15.426Z,979.10
2018-04-29T17:59:15.398Z,979.10
2018-04-29T18:00:15.389Z,979.10
2018-04-29T18:01:15.379Z,979.10
2018-04-29T18:02:15.378Z,979.09
2018-04-29T18:03:15.375Z,979.10
2018-04-29T18:04:15.363Z,979.06
2018-04-29T18:05:15.357Z,979.09
2018-04-29T18:06:15.357Z,979.06
2018-04-29T18:07:15.357Z,979.02
2018-04-29T18:08:15.334Z,979.04
2018-04-29T18:09:15.328Z,979.00
2018-04-29T18:10:15.331Z,978.96
2018-04-29T18:11:15.314Z,978.93
2018-04-29T18:12:15.309Z,978.92
2018-04-29T18:13:15.315Z,978.92
2018-04-29T18:14:15.302Z,978.89
2018-04-29T18:15:15.280Z,978.88
2018-04-29T18:16:15.283Z,978.84
2018-04-29T18:17:15.272Z,978.84
2018-04-29T18:18:15.266Z,978.84
2018-04-29T18:19:15.255Z,978.80
2018-04-29T18:20:15.251Z,978.77
2018-04-29T18:21:15.280Z,978.79
2018-04-29T18:22:15.265Z,978.74
2018-04-29T18:23:15.237Z,978.76
2018-04-29T18:24:15.224Z,978.74
2018-04-29T18:25:15.214Z,978.70
2018-04-29T18:26:15.209Z,978.70
2018-04-29T18:27:15.195Z,978.68
2018-04-29T18:28:15.198Z,978.64
2018-04-29T18:29:15.179Z,978.66
2018-04-29T18:30:15.175Z,978.62
2018-04-29T18:31:15.163Z,978.58
2018-04-29T18:32:15.151Z,978.57
2018-04-29T18:33:15.158Z,978.53
2018-04-29T18:34:15.156Z,978.54
2018-04-29T18:35:15.128Z,978.55
2018-04-29T18:36:15.120Z,978.52
2018-04-29T18:37:15.116Z,978.52
2018-04-29T18:38:15.105Z,978.53
2018-04-29T18:39:15.096Z,978.49
2018-04-29T18:40:15.080Z,978.51
2018-04-29T18:41:15.074Z,978.47
2018-04-29T18:42:15.078Z,978.44
2018-04-29T18:43:15.068Z,978.39
2018-04-29T18:44:15.052Z,978.37
2018-04-29T18:45:15.042Z,978.38
2018-04-29T18:46:15.027Z,978.35
2018-04-29T18:47:15.017Z,978.32
2018-04-29T18:48:15.016Z,978.34
2018-04-29T18:49:15.013Z,978.36
2018-04-29T18:50:14.999Z,978.35
2018-04-29T18:51:15.081Z,978.35
2018-04-29T18:52:14.976Z,978.33
2018-04-29T18:53:14.959Z,978.36
2018-04-29T18:54:14.947Z,978.31
2018-04-29T18:55:14.936Z,978.32
2018-04-29T18:56:14.980Z,978.32
2018-04-29T18:57:14.927Z,978.29
2018-04-29T18:58:14.914Z,978.34
2018-04-29T18:59:14.908Z,978.31
2018-04-29T19:00:14.888Z,978.30
2018-04-29T19:01:14.909Z,978.33
2018-04-29T19:02:14.870Z,978.30
2018-04-29T19:03:14.873Z,978.30
2018-04-29T19:04:14.860Z,978.31
2018-04-29T19:05:14.837Z,978.30
2018-04-29T19:06:14.831Z,978.29
2018-04-29T19:07:14.828Z,978.21
2018-04-29T19:08:14.811Z,978.21
2018-04-29T19:09:14.802Z,978.20
2018-04-29T19:10:14.789Z,978.17
2018-04-29T19:11:14.775Z,978.14
2018-04-29T19:12:14.760Z,978.11
2018-04-29T19:13:14.753Z,978.12
2018-04-29T19:14:14.759Z,978.08
2018-04-29T19:15:14.735Z,978.06
2018-04-29T19:16:14.719Z,978.07
2018-04-29T19:17:14.710Z,978.02
2018-04-29T19:18:14.709Z,978.03
2018-04-29T19:19:14.683Z,978.04
2018-04-29T19:20:14.672Z,978.02
2018-04-29T19:21:14.656Z,978.04
2018-04-29T19:22:14.649Z,977.95
2018-04-29T19:23:14.636Z,977.97
2018-04-29T19:24:14.909Z,977.97
2018-04-29T19:25:14.614Z,977.92
2018-04-29T19:26:14.607Z,977.94
2018-04-29T19:27:14.591Z,977.89
2018-04-29T19:28:14.582Z,977.88
2018-04-29T19:29:14.580Z,977.86
2018-04-29T19:30:14.582Z,977.84
2018-04-29T19:31:14.573Z,977.85
2018-04-29T19:32:14.534Z,977.80
2018-04-29T19:33:14.563Z,977.82
2018-04-29T19:34:14.544Z,977.85
2018-04-29T19:35:14.515Z,977.86
2018-04-29T19:36:14.492Z,977.85
2018-04-29T19:37:14.495Z,977.84
2018-04-29T19:38:14.471Z,977.82
2018-04-29T19:39:14.455Z,977.77
2018-04-29T19:40:14.458Z,977.71
2018-04-29T19:41:14.436Z,977.69
2018-04-29T19:42:14.420Z,977.66
2018-04-29T19:43:14.404Z,977.64
2018-04-29T19:44:14.401Z,977.60
2018-04-29T19:45:14.602Z,977.58
2018-04-29T19:46:14.382Z,977.56
2018-04-29T19:47:14.372Z,977.54
2018-04-29T19:48:14.350Z,977.52
2018-04-29T19:49:14.345Z,977.52
2018-04-29T19:50:14.330Z,977.46
2018-04-29T19:51:14.311Z,977.43
2018-04-29T19:52:14.302Z,977.43
2018-04-29T19:53:14.289Z,977.41
2018-04-29T19:54:14.282Z,977.42
2018-04-29T19:55:14.337Z,977.40
2018-04-29T19:56:14.283Z,977.35
2018-04-29T19:57:14.243Z,977.41
2018-04-29T19:58:14.236Z,977.38
2018-04-29T19:59:14.220Z,977.31
2018-04-29T20:00:14.223Z,977.28
2018-04-29T20:01:14.283Z,977.31
2018-04-29T20:02:14.185Z,977.21
2018-04-29T20:03:14.182Z,977.19
2018-04-29T20:04:14.181Z,977.15
2018-04-29T20:05:14.147Z,977.09
2018-04-29T20:06:14.163Z,977.09
2018-04-29T20:07:14.118Z,976.99
2018-04-29T20:08:14.109Z,977.01
2018-04-29T20:09:14.106Z,976.96
2018-04-29T20:10:14.124Z,976.94
2018-04-29T20:11:14.106Z,976.89
2018-04-29T20:12:14.058Z,976.85
2018-04-29T20:13:14.096Z,976.88
2018-04-29T20:14:14.037Z,976.85
2018-04-29T20:15:14.018Z,976.81
2018-04-29T20:16:14.011Z,976.77
2018-04-29T20:17:13.998Z,976.74
2018-04-29T20:18:13.988Z,976.73
2018-04-29T20:19:13.978Z,976.77
2018-04-29T20:20:13.972Z,976.72
2018-04-29T20:21:13.943Z,976.70
2018-04-29T20:22:13.934Z,976.64
2018-04-29T20:23:13.959Z,976.65
2018-04-29T20:24:13.916Z,976.60
2018-04-29T20:25:13.925Z,976.58
2018-04-29T20:26:13.902Z,976.57
2018-04-29T20:27:13.902Z,976.54
2018-04-29T20:28:13.860Z,976.50
2018-04-29T20:29:13.846Z,976.51
2018-04-29T20:30:13.834Z,976.50
2018-04-29T20:31:13.824Z,976.46
2018-04-29T20:32:13.821Z,976.47
2018-04-29T20:33:13.815Z,976.46
2018-04-29T20:34:13.785Z,976.50
2018-04-29T20:35:13.771Z,976.51
2018-04-29T20:36:13.774Z,976.41
2018-04-29T20:37:13.747Z,976.44
2018-04-29T20:38:13.728Z,976.41
2018-04-29T20:39:13.750Z,976.40
2018-04-29T20:40:13.715Z,976.41
2018-04-29T20:41:13.702Z,976.36
2018-04-29T20:42:13.706Z,976.40
2018-04-29T20:43:13.681Z,976.38
2018-04-29T20:44:13.669Z,976.39
2018-04-29T20:45:13.666Z,976.45
2018-04-29T20:46:13.640Z,976.43
2018-04-29T20:47:13.644Z,976.41
2018-04-29T20:48:13.653Z,976.47
2018-04-29T20:49:13.602Z,976.46
2018-04-29T20:50:13.590Z,976.44
2018-04-29T20:51:13.577Z,976.47
2018-04-29T20:52:13.572Z,976.45
2018-04-29T20:53:13.555Z,976.44
2018-04-29T20:54:13.551Z,976.47
2018-04-29T20:55:13.578Z,976.45
2018-04-29T20:56:13.577Z,976.40
2018-04-29T20:57:13.548Z,976.45
2018-04-29T20:58:13.529Z,976.35
2018-04-29T20:59:13.494Z,976.40
2018-04-29T21:00:13.480Z,976.40
2018-04-29T21:01:13.491Z,976.36